sensor_id;sensor_type;location;lat;lon;timestamp;P1;durP1;ratioP1;P2;durP2;ratioP2
53843;SDS011;39744;53.314;5.710;2023-06-14T00:01:51;7.28;;;1.88;;
53843;SDS011;39744;53.314;5.710;2023-06-14T00:04:17;8.48;;;2.08;;
53843;SDS011;39744;53.314;5.710;2023-06-14T00:06:45;7.30;;;2.03;;
53843;SDS011;39744;53.314;5.710;2023-06-14T00:09:13;6.72;;;2.08;;
53843;SDS011;39744;53.314;5.710;2023-06-14T00:11:40;5.28;;;2.00;;
53843;SDS011;39744;53.314;5.710;2023-06-14T00:14:06;5.97;;;2.30;;
53843;SDS011;39744;53.314;5.710;2023-06-14T00:16:32;5.53;;;1.70;;
53843;SDS011;39744;53.314;5.710;2023-06-14T00:19:00;5.55;;;1.70;;
53843;SDS011;39744;53.314;5.710;2023-06-14T00:21:28;7.97;;;1.65;;
53843;SDS011;39744;53.314;5.710;2023-06-14T00:23:55;10.32;;;2.55;;
53843;SDS011;39744;53.314;5.710;2023-06-14T00:26:21;5.30;;;2.30;;
53843;SDS011;39744;53.314;5.710;2023-06-14T00:28:47;5.68;;;2.28;;
53843;SDS011;39744;53.314;5.710;2023-06-14T00:31:13;8.68;;;2.05;;
53843;SDS011;39744;53.314;5.710;2023-06-14T00:33:40;7.47;;;2.08;;
53843;SDS011;39744;53.314;5.710;2023-06-14T00:36:06;4.07;;;1.77;;
53843;SDS011;39744;53.314;5.710;2023-06-14T00:38:32;5.35;;;2.08;;
53843;SDS011;39744;53.314;5.710;2023-06-14T00:40:58;7.45;;;1.92;;
53843;SDS011;39744;53.314;5.710;2023-06-14T00:43:24;6.93;;;1.80;;
53843;SDS011;39744;53.314;5.710;2023-06-14T00:45:50;4.35;;;2.05;;
53843;SDS011;39744;53.314;5.710;2023-06-14T00:48:17;3.47;;;1.75;;
53843;SDS011;39744;53.314;5.710;2023-06-14T00:50:43;6.47;;;2.13;;
53843;SDS011;39744;53.314;5.710;2023-06-14T00:53:14;8.65;;;2.20;;
53843;SDS011;39744;53.314;5.710;2023-06-14T00:55:40;4.93;;;1.80;;
53843;SDS011;39744;53.314;5.710;2023-06-14T00:58:07;5.35;;;2.10;;
53843;SDS011;39744;53.314;5.710;2023-06-14T01:00:33;6.75;;;1.92;;
53843;SDS011;39744;53.314;5.710;2023-06-14T01:02:59;4.45;;;1.77;;
53843;SDS011;39744;53.314;5.710;2023-06-14T01:05:26;5.95;;;1.80;;
53843;SDS011;39744;53.314;5.710;2023-06-14T01:13:15;4.15;;;1.60;;
53843;SDS011;39744;53.314;5.710;2023-06-14T01:15:42;5.18;;;1.60;;
53843;SDS011;39744;53.314;5.710;2023-06-14T01:18:09;5.70;;;1.80;;
53843;SDS011;39744;53.314;5.710;2023-06-14T01:20:42;3.63;;;1.60;;
53843;SDS011;39744;53.314;5.710;2023-06-14T01:23:10;5.18;;;1.80;;
53843;SDS011;39744;53.314;5.710;2023-06-14T01:25:37;5.28;;;1.52;;
53843;SDS011;39744;53.314;5.710;2023-06-14T01:28:04;7.30;;;1.67;;
53843;SDS011;39744;53.314;5.710;2023-06-14T01:30:39;4.20;;;1.60;;
53843;SDS011;39744;53.314;5.710;2023-06-14T01:33:11;5.87;;;1.87;;
53843;SDS011;39744;53.314;5.710;2023-06-14T01:35:38;7.18;;;1.80;;
53843;SDS011;39744;53.314;5.710;2023-06-14T01:38:04;3.60;;;1.70;;
53843;SDS011;39744;53.314;5.710;2023-06-14T01:40:32;4.70;;;1.60;;
53843;SDS011;39744;53.314;5.710;2023-06-14T01:43:00;6.38;;;1.88;;
53843;SDS011;39744;53.314;5.710;2023-06-14T01:45:26;6.07;;;1.92;;
53843;SDS011;39744;53.314;5.710;2023-06-14T01:47:53;4.88;;;1.80;;
53843;SDS011;39744;53.314;5.710;2023-06-14T01:50:20;4.03;;;1.52;;
53843;SDS011;39744;53.314;5.710;2023-06-14T01:52:46;9.38;;;2.00;;
53843;SDS011;39744;53.314;5.710;2023-06-14T01:55:12;4.45;;;1.80;;
53843;SDS011;39744;53.314;5.710;2023-06-14T01:57:38;4.45;;;1.70;;
53843;SDS011;39744;53.314;5.710;2023-06-14T02:00:05;4.43;;;1.70;;
53843;SDS011;39744;53.314;5.710;2023-06-14T02:02:37;5.10;;;1.60;;
53843;SDS011;39744;53.314;5.710;2023-06-14T02:05:04;5.00;;;1.70;;
53843;SDS011;39744;53.314;5.710;2023-06-14T02:07:30;3.75;;;1.50;;
53843;SDS011;39744;53.314;5.710;2023-06-14T02:09:56;4.95;;;1.60;;
53843;SDS011;39744;53.314;5.710;2023-06-14T02:12:22;5.40;;;1.83;;
53843;SDS011;39744;53.314;5.710;2023-06-14T02:14:48;3.65;;;1.52;;
53843;SDS011;39744;53.314;5.710;2023-06-14T02:17:14;7.97;;;1.58;;
53843;SDS011;39744;53.314;5.710;2023-06-14T02:19:41;10.88;;;2.08;;
53843;SDS011;39744;53.314;5.710;2023-06-14T02:22:07;5.68;;;1.80;;
53843;SDS011;39744;53.314;5.710;2023-06-14T02:24:33;5.22;;;1.90;;
53843;SDS011;39744;53.314;5.710;2023-06-14T02:27:00;5.28;;;1.70;;
53843;SDS011;39744;53.314;5.710;2023-06-14T02:29:27;4.80;;;1.88;;
53843;SDS011;39744;53.314;5.710;2023-06-14T02:31:53;3.97;;;1.80;;
53843;SDS011;39744;53.314;5.710;2023-06-14T02:34:19;5.22;;;1.80;;
53843;SDS011;39744;53.314;5.710;2023-06-14T02:36:46;4.35;;;1.80;;
53843;SDS011;39744;53.314;5.710;2023-06-14T02:39:13;5.28;;;1.77;;
53843;SDS011;39744;53.314;5.710;2023-06-14T02:41:39;7.05;;;1.80;;
53843;SDS011;39744;53.314;5.710;2023-06-14T02:44:05;6.93;;;2.00;;
53843;SDS011;39744;53.314;5.710;2023-06-14T02:46:32;6.18;;;1.80;;
53843;SDS011;39744;53.314;5.710;2023-06-14T02:48:58;5.10;;;1.95;;
53843;SDS011;39744;53.314;5.710;2023-06-14T02:51:24;6.85;;;2.10;;
53843;SDS011;39744;53.314;5.710;2023-06-14T02:53:50;5.82;;;2.20;;
53843;SDS011;39744;53.314;5.710;2023-06-14T02:56:16;3.45;;;1.50;;
53843;SDS011;39744;53.314;5.710;2023-06-14T02:58:44;3.53;;;2.03;;
53843;SDS011;39744;53.314;5.710;2023-06-14T03:01:11;3.75;;;2.05;;
53843;SDS011;39744;53.314;5.710;2023-06-14T03:03:41;7.38;;;2.35;;
53843;SDS011;39744;53.314;5.710;2023-06-14T03:06:06;4.43;;;1.90;;
53843;SDS011;39744;53.314;5.710;2023-06-14T03:08:34;4.82;;;2.22;;
53843;SDS011;39744;53.314;5.710;2023-06-14T03:11:04;7.22;;;2.10;;
53843;SDS011;39744;53.314;5.710;2023-06-14T03:13:30;6.25;;;2.40;;
53843;SDS011;39744;53.314;5.710;2023-06-14T03:16:00;7.03;;;2.08;;
53843;SDS011;39744;53.314;5.710;2023-06-14T03:18:29;4.72;;;2.20;;
53843;SDS011;39744;53.314;5.710;2023-06-14T03:20:56;7.40;;;2.50;;
53843;SDS011;39744;53.314;5.710;2023-06-14T03:23:23;4.68;;;2.08;;
53843;SDS011;39744;53.314;5.710;2023-06-14T03:25:50;5.00;;;2.47;;
53843;SDS011;39744;53.314;5.710;2023-06-14T03:28:16;7.07;;;2.22;;
53843;SDS011;39744;53.314;5.710;2023-06-14T03:30:42;6.07;;;2.10;;
53843;SDS011;39744;53.314;5.710;2023-06-14T03:33:08;3.55;;;1.98;;
53843;SDS011;39744;53.314;5.710;2023-06-14T03:35:34;4.05;;;2.17;;
53843;SDS011;39744;53.314;5.710;2023-06-14T03:38:00;4.28;;;1.92;;
53843;SDS011;39744;53.314;5.710;2023-06-14T03:40:27;7.82;;;2.50;;
53843;SDS011;39744;53.314;5.710;2023-06-14T03:42:54;5.53;;;2.55;;
53843;SDS011;39744;53.314;5.710;2023-06-14T03:45:20;4.45;;;2.13;;
53843;SDS011;39744;53.314;5.710;2023-06-14T03:47:46;5.78;;;2.30;;
53843;SDS011;39744;53.314;5.710;2023-06-14T03:50:12;5.20;;;2.38;;
53843;SDS011;39744;53.314;5.710;2023-06-14T03:52:38;5.90;;;3.00;;
53843;SDS011;39744;53.314;5.710;2023-06-14T03:55:07;4.35;;;2.30;;
53843;SDS011;39744;53.314;5.710;2023-06-14T03:57:33;4.95;;;2.33;;
53843;SDS011;39744;53.314;5.710;2023-06-14T03:59:59;6.03;;;2.10;;
53843;SDS011;39744;53.314;5.710;2023-06-14T04:02:25;7.32;;;2.33;;
53843;SDS011;39744;53.314;5.710;2023-06-14T04:04:54;5.07;;;2.30;;
53843;SDS011;39744;53.314;5.710;2023-06-14T04:07:20;11.93;;;2.47;;
53843;SDS011;39744;53.314;5.710;2023-06-14T04:09:46;5.20;;;2.33;;
53843;SDS011;39744;53.314;5.710;2023-06-14T04:12:12;7.47;;;2.50;;
53843;SDS011;39744;53.314;5.710;2023-06-14T04:14:39;5.00;;;2.15;;
53843;SDS011;39744;53.314;5.710;2023-06-14T04:17:05;7.82;;;2.55;;
53843;SDS011;39744;53.314;5.710;2023-06-14T04:19:31;6.55;;;2.25;;
53843;SDS011;39744;53.314;5.710;2023-06-14T04:21:58;4.22;;;2.38;;
53843;SDS011;39744;53.314;5.710;2023-06-14T04:24:26;5.53;;;2.33;;
53843;SDS011;39744;53.314;5.710;2023-06-14T04:26:57;6.93;;;2.45;;
53843;SDS011;39744;53.314;5.710;2023-06-14T04:29:23;5.35;;;2.80;;
53843;SDS011;39744;53.314;5.710;2023-06-14T04:31:51;5.88;;;2.20;;
53843;SDS011;39744;53.314;5.710;2023-06-14T04:34:18;6.22;;;2.33;;
53843;SDS011;39744;53.314;5.710;2023-06-14T04:36:44;6.40;;;2.85;;
53843;SDS011;39744;53.314;5.710;2023-06-14T04:39:17;4.72;;;2.42;;
53843;SDS011;39744;53.314;5.710;2023-06-14T04:41:43;10.73;;;2.75;;
53843;SDS011;39744;53.314;5.710;2023-06-14T04:44:09;6.25;;;2.90;;
53843;SDS011;39744;53.314;5.710;2023-06-14T04:46:36;6.43;;;2.55;;
53843;SDS011;39744;53.314;5.710;2023-06-14T04:49:17;8.43;;;2.60;;
53843;SDS011;39744;53.314;5.710;2023-06-14T04:51:43;6.40;;;2.53;;
53843;SDS011;39744;53.314;5.710;2023-06-14T04:54:10;7.70;;;2.55;;
53843;SDS011;39744;53.314;5.710;2023-06-14T04:56:38;6.57;;;2.53;;
53843;SDS011;39744;53.314;5.710;2023-06-14T04:59:04;7.20;;;2.60;;
53843;SDS011;39744;53.314;5.710;2023-06-14T05:01:31;6.72;;;2.67;;
53843;SDS011;39744;53.314;5.710;2023-06-14T05:03:58;9.60;;;2.72;;
53843;SDS011;39744;53.314;5.710;2023-06-14T05:06:24;9.68;;;2.70;;
53843;SDS011;39744;53.314;5.710;2023-06-14T05:08:51;11.38;;;2.90;;
53843;SDS011;39744;53.314;5.710;2023-06-14T05:11:17;6.13;;;2.58;;
53843;SDS011;39744;53.314;5.710;2023-06-14T05:13:43;6.13;;;2.70;;
53843;SDS011;39744;53.314;5.710;2023-06-14T05:16:10;5.20;;;2.47;;
53843;SDS011;39744;53.314;5.710;2023-06-14T05:18:36;7.72;;;3.03;;
53843;SDS011;39744;53.314;5.710;2023-06-14T05:21:03;6.40;;;2.90;;
53843;SDS011;39744;53.314;5.710;2023-06-14T05:23:30;5.28;;;2.70;;
53843;SDS011;39744;53.314;5.710;2023-06-14T05:25:56;5.97;;;3.25;;
53843;SDS011;39744;53.314;5.710;2023-06-14T05:28:22;5.97;;;2.80;;
53843;SDS011;39744;53.314;5.710;2023-06-14T05:30:48;7.00;;;3.03;;
53843;SDS011;39744;53.314;5.710;2023-06-14T05:33:15;5.45;;;2.80;;
53843;SDS011;39744;53.314;5.710;2023-06-14T05:35:41;7.70;;;3.13;;
53843;SDS011;39744;53.314;5.710;2023-06-14T05:38:07;5.30;;;3.13;;
53843;SDS011;39744;53.314;5.710;2023-06-14T05:40:33;9.27;;;3.10;;
53843;SDS011;39744;53.314;5.710;2023-06-14T05:42:59;7.38;;;2.92;;
53843;SDS011;39744;53.314;5.710;2023-06-14T05:45:25;6.95;;;2.90;;
53843;SDS011;39744;53.314;5.710;2023-06-14T05:47:52;8.82;;;2.85;;
53843;SDS011;39744;53.314;5.710;2023-06-14T05:50:19;5.03;;;2.85;;
53843;SDS011;39744;53.314;5.710;2023-06-14T05:52:45;8.43;;;3.03;;
53843;SDS011;39744;53.314;5.710;2023-06-14T05:55:11;6.97;;;3.03;;
53843;SDS011;39744;53.314;5.710;2023-06-14T05:57:38;7.50;;;3.10;;
53843;SDS011;39744;53.314;5.710;2023-06-14T06:00:04;7.10;;;2.75;;
53843;SDS011;39744;53.314;5.710;2023-06-14T06:02:39;5.57;;;3.20;;
53843;SDS011;39744;53.314;5.710;2023-06-14T06:05:06;7.28;;;2.90;;
53843;SDS011;39744;53.314;5.710;2023-06-14T06:07:32;5.43;;;2.72;;
53843;SDS011;39744;53.314;5.710;2023-06-14T06:09:58;9.32;;;3.13;;
53843;SDS011;39744;53.314;5.710;2023-06-14T06:12:24;6.45;;;3.08;;
53843;SDS011;39744;53.314;5.710;2023-06-14T06:14:50;6.20;;;3.08;;
53843;SDS011;39744;53.314;5.710;2023-06-14T06:17:16;7.32;;;2.63;;
53843;SDS011;39744;53.314;5.710;2023-06-14T06:19:42;8.18;;;3.10;;
53843;SDS011;39744;53.314;5.710;2023-06-14T06:22:08;10.55;;;3.08;;
53843;SDS011;39744;53.314;5.710;2023-06-14T06:24:34;8.82;;;3.30;;
53843;SDS011;39744;53.314;5.710;2023-06-14T06:27:01;6.93;;;2.78;;
53843;SDS011;39744;53.314;5.710;2023-06-14T06:29:27;7.78;;;3.20;;
53843;SDS011;39744;53.314;5.710;2023-06-14T06:31:53;5.82;;;3.08;;
53843;SDS011;39744;53.314;5.710;2023-06-14T06:34:21;6.47;;;2.70;;
53843;SDS011;39744;53.314;5.710;2023-06-14T06:36:47;6.25;;;3.00;;
53843;SDS011;39744;53.314;5.710;2023-06-14T06:39:13;6.13;;;3.00;;
53843;SDS011;39744;53.314;5.710;2023-06-14T06:41:40;5.65;;;3.10;;
53843;SDS011;39744;53.314;5.710;2023-06-14T06:44:06;6.65;;;2.88;;
53843;SDS011;39744;53.314;5.710;2023-06-14T06:46:32;6.38;;;3.13;;
53843;SDS011;39744;53.314;5.710;2023-06-14T06:49:00;7.57;;;3.13;;
53843;SDS011;39744;53.314;5.710;2023-06-14T06:51:26;5.55;;;3.00;;
53843;SDS011;39744;53.314;5.710;2023-06-14T06:53:55;6.32;;;3.15;;
53843;SDS011;39744;53.314;5.710;2023-06-14T06:56:21;5.70;;;2.88;;
53843;SDS011;39744;53.314;5.710;2023-06-14T06:58:48;5.45;;;2.50;;
53843;SDS011;39744;53.314;5.710;2023-06-14T07:01:15;7.20;;;3.13;;
53843;SDS011;39744;53.314;5.710;2023-06-14T07:03:41;4.50;;;2.72;;
53843;SDS011;39744;53.314;5.710;2023-06-14T07:06:07;7.93;;;2.97;;
53843;SDS011;39744;53.314;5.710;2023-06-14T07:08:33;5.90;;;2.97;;
53843;SDS011;39744;53.314;5.710;2023-06-14T07:11:00;5.22;;;2.80;;
53843;SDS011;39744;53.314;5.710;2023-06-14T07:13:27;6.72;;;3.03;;
53843;SDS011;39744;53.314;5.710;2023-06-14T07:15:54;8.38;;;3.00;;
53843;SDS011;39744;53.314;5.710;2023-06-14T07:18:20;4.78;;;2.70;;
53843;SDS011;39744;53.314;5.710;2023-06-14T07:20:47;6.93;;;3.00;;
53843;SDS011;39744;53.314;5.710;2023-06-14T07:23:13;7.85;;;3.60;;
53843;SDS011;39744;53.314;5.710;2023-06-14T07:25:39;8.15;;;2.97;;
53843;SDS011;39744;53.314;5.710;2023-06-14T07:28:05;6.97;;;2.95;;
53843;SDS011;39744;53.314;5.710;2023-06-14T07:30:35;4.15;;;2.40;;
53843;SDS011;39744;53.314;5.710;2023-06-14T07:33:03;8.23;;;2.45;;
53843;SDS011;39744;53.314;5.710;2023-06-14T07:35:29;6.32;;;2.70;;
53843;SDS011;39744;53.314;5.710;2023-06-14T07:37:55;4.25;;;2.45;;
53843;SDS011;39744;53.314;5.710;2023-06-14T07:40:22;7.32;;;2.50;;
53843;SDS011;39744;53.314;5.710;2023-06-14T07:42:48;5.53;;;2.50;;
53843;SDS011;39744;53.314;5.710;2023-06-14T07:45:15;6.80;;;2.45;;
53843;SDS011;39744;53.314;5.710;2023-06-14T07:47:41;8.68;;;2.60;;
53843;SDS011;39744;53.314;5.710;2023-06-14T07:50:07;6.60;;;2.28;;
53843;SDS011;39744;53.314;5.710;2023-06-14T07:52:34;5.72;;;2.03;;
53843;SDS011;39744;53.314;5.710;2023-06-14T07:55:02;5.47;;;2.28;;
53843;SDS011;39744;53.314;5.710;2023-06-14T07:57:28;4.45;;;2.30;;
53843;SDS011;39744;53.314;5.710;2023-06-14T07:59:54;6.78;;;2.42;;
53843;SDS011;39744;53.314;5.710;2023-06-14T08:02:20;6.57;;;2.22;;
53843;SDS011;39744;53.314;5.710;2023-06-14T08:04:46;4.78;;;1.90;;
53843;SDS011;39744;53.314;5.710;2023-06-14T08:07:13;6.15;;;2.20;;
53843;SDS011;39744;53.314;5.710;2023-06-14T08:09:42;5.68;;;2.03;;
53843;SDS011;39744;53.314;5.710;2023-06-14T08:12:08;3.45;;;1.80;;
53843;SDS011;39744;53.314;5.710;2023-06-14T08:14:38;4.85;;;2.28;;
53843;SDS011;39744;53.314;5.710;2023-06-14T08:17:04;3.50;;;2.03;;
53843;SDS011;39744;53.314;5.710;2023-06-14T08:19:30;5.47;;;2.03;;
53843;SDS011;39744;53.314;5.710;2023-06-14T08:21:57;4.70;;;1.95;;
53843;SDS011;39744;53.314;5.710;2023-06-14T08:24:23;5.30;;;2.00;;
53843;SDS011;39744;53.314;5.710;2023-06-14T08:26:53;3.25;;;2.00;;
53843;SDS011;39744;53.314;5.710;2023-06-14T08:29:21;6.80;;;2.20;;
53843;SDS011;39744;53.314;5.710;2023-06-14T08:31:54;3.70;;;1.92;;
53843;SDS011;39744;53.314;5.710;2023-06-14T08:34:24;8.82;;;2.00;;
53843;SDS011;39744;53.314;5.710;2023-06-14T08:36:51;5.85;;;2.00;;
53843;SDS011;39744;53.314;5.710;2023-06-14T08:39:17;4.80;;;1.80;;
53843;SDS011;39744;53.314;5.710;2023-06-14T08:41:47;4.32;;;2.05;;
53843;SDS011;39744;53.314;5.710;2023-06-14T08:44:16;7.35;;;2.30;;
53843;SDS011;39744;53.314;5.710;2023-06-14T08:46:47;8.70;;;2.03;;
53843;SDS011;39744;53.314;5.710;2023-06-14T08:49:13;5.47;;;2.13;;
53843;SDS011;39744;53.314;5.710;2023-06-14T08:51:45;4.18;;;1.90;;
53843;SDS011;39744;53.314;5.710;2023-06-14T08:54:12;7.13;;;2.10;;
53843;SDS011;39744;53.314;5.710;2023-06-14T08:56:38;4.93;;;2.40;;
53843;SDS011;39744;53.314;5.710;2023-06-14T08:59:07;4.10;;;1.90;;
53843;SDS011;39744;53.314;5.710;2023-06-14T09:01:37;7.38;;;2.30;;
53843;SDS011;39744;53.314;5.710;2023-06-14T09:04:04;5.15;;;1.98;;
53843;SDS011;39744;53.314;5.710;2023-06-14T09:06:31;4.03;;;1.65;;
53843;SDS011;39744;53.314;5.710;2023-06-14T09:08:58;3.85;;;1.92;;
53843;SDS011;39744;53.314;5.710;2023-06-14T09:11:27;4.75;;;2.17;;
53843;SDS011;39744;53.314;5.710;2023-06-14T09:13:53;5.65;;;2.20;;
53843;SDS011;39744;53.314;5.710;2023-06-14T09:16:20;4.80;;;2.13;;
53843;SDS011;39744;53.314;5.710;2023-06-14T09:18:47;4.05;;;2.13;;
53843;SDS011;39744;53.314;5.710;2023-06-14T09:21:13;4.22;;;1.98;;
53843;SDS011;39744;53.314;5.710;2023-06-14T09:23:40;5.28;;;1.83;;
53843;SDS011;39744;53.314;5.710;2023-06-14T09:28:36;5.25;;;1.88;;
53843;SDS011;39744;53.314;5.710;2023-06-14T09:31:06;4.70;;;2.10;;
53843;SDS011;39744;53.314;5.710;2023-06-14T09:33:34;5.63;;;2.53;;
53843;SDS011;39744;53.314;5.710;2023-06-14T09:36:00;5.70;;;2.13;;
53843;SDS011;39744;53.314;5.710;2023-06-14T09:38:27;5.75;;;2.13;;
53843;SDS011;39744;53.314;5.710;2023-06-14T09:40:55;5.22;;;2.30;;
53843;SDS011;39744;53.314;5.710;2023-06-14T09:43:21;5.43;;;1.95;;
53843;SDS011;39744;53.314;5.710;2023-06-14T09:45:49;5.15;;;2.00;;
53843;SDS011;39744;53.314;5.710;2023-06-14T09:48:16;4.85;;;2.20;;
53843;SDS011;39744;53.314;5.710;2023-06-14T09:50:47;5.32;;;2.40;;
53843;SDS011;39744;53.314;5.710;2023-06-14T09:53:15;5.93;;;1.90;;
53843;SDS011;39744;53.314;5.710;2023-06-14T09:55:47;4.05;;;2.17;;
53843;SDS011;39744;53.314;5.710;2023-06-14T09:58:15;4.57;;;1.70;;
53843;SDS011;39744;53.314;5.710;2023-06-14T10:00:42;3.10;;;1.67;;
53843;SDS011;39744;53.314;5.710;2023-06-14T10:03:16;4.07;;;1.60;;
53843;SDS011;39744;53.314;5.710;2023-06-14T10:05:45;5.05;;;1.90;;
53843;SDS011;39744;53.314;5.710;2023-06-14T10:08:16;5.85;;;1.80;;
53843;SDS011;39744;53.314;5.710;2023-06-14T10:10:46;4.07;;;2.20;;
53843;SDS011;39744;53.314;5.710;2023-06-14T10:13:13;6.00;;;1.67;;
53843;SDS011;39744;53.314;5.710;2023-06-14T10:15:46;4.70;;;1.73;;
53843;SDS011;39744;53.314;5.710;2023-06-14T10:18:16;4.65;;;1.98;;
53843;SDS011;39744;53.314;5.710;2023-06-14T10:21:08;4.25;;;1.60;;
53843;SDS011;39744;53.314;5.710;2023-06-14T10:23:37;5.80;;;1.85;;
53843;SDS011;39744;53.314;5.710;2023-06-14T10:26:05;5.80;;;1.88;;
53843;SDS011;39744;53.314;5.710;2023-06-14T10:28:31;4.70;;;1.70;;
53843;SDS011;39744;53.314;5.710;2023-06-14T10:31:02;4.25;;;1.83;;
53843;SDS011;39744;53.314;5.710;2023-06-14T10:33:55;6.43;;;1.90;;
53843;SDS011;39744;53.314;5.710;2023-06-14T10:39:07;5.57;;;1.75;;
53843;SDS011;39744;53.314;5.710;2023-06-14T10:41:37;5.32;;;1.63;;
53843;SDS011;39744;53.314;5.710;2023-06-14T10:46:54;4.70;;;1.60;;
53843;SDS011;39744;53.314;5.710;2023-06-14T10:52:09;4.10;;;1.80;;
53843;SDS011;39744;53.314;5.710;2023-06-14T10:57:29;5.38;;;1.90;;
53843;SDS011;39744;53.314;5.710;2023-06-14T11:00:00;5.35;;;2.00;;
53843;SDS011;39744;53.314;5.710;2023-06-14T11:05:10;3.83;;;1.90;;
53843;SDS011;39744;53.314;5.710;2023-06-14T11:07:58;8.18;;;2.03;;
53843;SDS011;39744;53.314;5.710;2023-06-14T11:10:39;6.70;;;2.00;;
53843;SDS011;39744;53.314;5.710;2023-06-14T11:13:08;4.68;;;1.77;;
53843;SDS011;39744;53.314;5.710;2023-06-14T11:15:37;5.85;;;1.95;;
53843;SDS011;39744;53.314;5.710;2023-06-14T11:18:04;4.03;;;2.20;;
53843;SDS011;39744;53.314;5.710;2023-06-14T11:20:31;8.63;;;2.10;;
53843;SDS011;39744;53.314;5.710;2023-06-14T11:22:58;4.97;;;2.30;;
53843;SDS011;39744;53.314;5.710;2023-06-14T11:25:26;9.65;;;2.78;;
53843;SDS011;39744;53.314;5.710;2023-06-14T11:27:56;5.90;;;2.60;;
53843;SDS011;39744;53.314;5.710;2023-06-14T11:30:22;5.47;;;2.30;;
53843;SDS011;39744;53.314;5.710;2023-06-14T11:32:50;5.45;;;2.20;;
53843;SDS011;39744;53.314;5.710;2023-06-14T11:35:17;4.05;;;2.00;;
53843;SDS011;39744;53.314;5.710;2023-06-14T11:37:43;5.63;;;2.40;;
53843;SDS011;39744;53.314;5.710;2023-06-14T11:40:09;8.25;;;2.15;;
53843;SDS011;39744;53.314;5.710;2023-06-14T11:42:37;4.55;;;2.05;;
53843;SDS011;39744;53.314;5.710;2023-06-14T11:45:03;5.20;;;2.58;;
53843;SDS011;39744;53.314;5.710;2023-06-14T11:47:34;5.95;;;2.28;;
53843;SDS011;39744;53.314;5.710;2023-06-14T11:50:00;6.15;;;2.72;;
53843;SDS011;39744;53.314;5.710;2023-06-14T11:52:26;8.55;;;2.92;;
53843;SDS011;39744;53.314;5.710;2023-06-14T11:54:53;5.38;;;2.60;;
53843;SDS011;39744;53.314;5.710;2023-06-14T11:57:19;6.22;;;2.80;;
53843;SDS011;39744;53.314;5.710;2023-06-14T11:59:46;6.43;;;2.90;;
53843;SDS011;39744;53.314;5.710;2023-06-14T12:02:18;10.98;;;3.40;;
53843;SDS011;39744;53.314;5.710;2023-06-14T12:04:48;12.68;;;3.58;;
53843;SDS011;39744;53.314;5.710;2023-06-14T12:07:14;9.30;;;2.92;;
53843;SDS011;39744;53.314;5.710;2023-06-14T12:12:18;7.60;;;2.83;;
53843;SDS011;39744;53.314;5.710;2023-06-14T12:14:44;7.57;;;2.83;;
53843;SDS011;39744;53.314;5.710;2023-06-14T12:17:10;12.73;;;3.03;;
53843;SDS011;39744;53.314;5.710;2023-06-14T12:19:42;7.22;;;2.85;;
53843;SDS011;39744;53.314;5.710;2023-06-14T12:22:09;6.07;;;2.80;;
53843;SDS011;39744;53.314;5.710;2023-06-14T12:24:35;10.38;;;3.20;;
53843;SDS011;39744;53.314;5.710;2023-06-14T12:27:01;13.77;;;3.58;;
53843;SDS011;39744;53.314;5.710;2023-06-14T12:29:31;10.02;;;3.28;;
53843;SDS011;39744;53.314;5.710;2023-06-14T12:31:57;6.45;;;2.80;;
53843;SDS011;39744;53.314;5.710;2023-06-14T12:34:24;6.78;;;3.10;;
53843;SDS011;39744;53.314;5.710;2023-06-14T12:36:51;5.10;;;2.75;;
53843;SDS011;39744;53.314;5.710;2023-06-14T12:39:18;7.97;;;3.03;;
53843;SDS011;39744;53.314;5.710;2023-06-14T12:41:44;6.95;;;3.15;;
53843;SDS011;39744;53.314;5.710;2023-06-14T12:44:10;8.27;;;3.17;;
53843;SDS011;39744;53.314;5.710;2023-06-14T12:46:37;8.10;;;2.63;;
53843;SDS011;39744;53.314;5.710;2023-06-14T12:49:10;8.00;;;2.63;;
53843;SDS011;39744;53.314;5.710;2023-06-14T12:51:36;6.78;;;2.75;;
53843;SDS011;39744;53.314;5.710;2023-06-14T12:54:02;6.45;;;2.90;;
53843;SDS011;39744;53.314;5.710;2023-06-14T12:56:29;7.32;;;3.10;;
53843;SDS011;39744;53.314;5.710;2023-06-14T12:58:55;4.70;;;2.47;;
53843;SDS011;39744;53.314;5.710;2023-06-14T13:01:21;7.20;;;2.65;;
53843;SDS011;39744;53.314;5.710;2023-06-14T13:03:47;5.75;;;2.50;;
53843;SDS011;39744;53.314;5.710;2023-06-14T13:06:14;8.15;;;2.60;;
53843;SDS011;39744;53.314;5.710;2023-06-14T13:08:40;6.80;;;2.95;;
53843;SDS011;39744;53.314;5.710;2023-06-14T13:11:07;4.93;;;2.35;;
53843;SDS011;39744;53.314;5.710;2023-06-14T13:13:33;7.80;;;2.00;;
53843;SDS011;39744;53.314;5.710;2023-06-14T13:15:59;5.40;;;2.50;;
53843;SDS011;39744;53.314;5.710;2023-06-14T13:18:25;7.25;;;2.42;;
53843;SDS011;39744;53.314;5.710;2023-06-14T13:20:51;9.18;;;2.40;;
53843;SDS011;39744;53.314;5.710;2023-06-14T13:23:17;7.35;;;2.30;;
53843;SDS011;39744;53.314;5.710;2023-06-14T13:25:44;6.53;;;2.97;;
53843;SDS011;39744;53.314;5.710;2023-06-14T13:28:10;6.78;;;3.15;;
53843;SDS011;39744;53.314;5.710;2023-06-14T13:30:36;5.75;;;2.70;;
53843;SDS011;39744;53.314;5.710;2023-06-14T13:33:02;6.45;;;2.75;;
53843;SDS011;39744;53.314;5.710;2023-06-14T13:35:29;6.75;;;2.70;;
53843;SDS011;39744;53.314;5.710;2023-06-14T13:37:55;5.90;;;2.53;;
53843;SDS011;39744;53.314;5.710;2023-06-14T13:40:21;6.93;;;2.40;;
53843;SDS011;39744;53.314;5.710;2023-06-14T13:42:47;7.95;;;2.88;;
53843;SDS011;39744;53.314;5.710;2023-06-14T13:45:13;12.35;;;2.92;;
53843;SDS011;39744;53.314;5.710;2023-06-14T13:47:39;9.40;;;2.83;;
53843;SDS011;39744;53.314;5.710;2023-06-14T13:50:06;7.75;;;2.67;;
53843;SDS011;39744;53.314;5.710;2023-06-14T13:52:32;5.07;;;2.40;;
53843;SDS011;39744;53.314;5.710;2023-06-14T13:54:58;9.50;;;2.92;;
53843;SDS011;39744;53.314;5.710;2023-06-14T13:57:25;7.35;;;2.30;;
53843;SDS011;39744;53.314;5.710;2023-06-14T13:59:51;7.85;;;2.58;;
53843;SDS011;39744;53.314;5.710;2023-06-14T14:02:20;6.85;;;2.70;;
53843;SDS011;39744;53.314;5.710;2023-06-14T14:04:46;7.30;;;2.50;;
53843;SDS011;39744;53.314;5.710;2023-06-14T14:07:18;7.60;;;2.50;;
53843;SDS011;39744;53.314;5.710;2023-06-14T14:09:45;7.82;;;2.53;;
53843;SDS011;39744;53.314;5.710;2023-06-14T14:12:12;10.25;;;2.80;;
53843;SDS011;39744;53.314;5.710;2023-06-14T14:14:39;5.03;;;2.30;;
53843;SDS011;39744;53.314;5.710;2023-06-14T14:17:06;7.55;;;2.83;;
53843;SDS011;39744;53.314;5.710;2023-06-14T14:19:32;6.00;;;2.40;;
53843;SDS011;39744;53.314;5.710;2023-06-14T14:21:58;7.25;;;2.63;;
53843;SDS011;39744;53.314;5.710;2023-06-14T14:24:24;6.05;;;2.60;;
53843;SDS011;39744;53.314;5.710;2023-06-14T14:26:51;5.85;;;2.30;;
53843;SDS011;39744;53.314;5.710;2023-06-14T14:29:18;6.50;;;2.60;;
53843;SDS011;39744;53.314;5.710;2023-06-14T14:31:44;6.32;;;2.80;;
53843;SDS011;39744;53.314;5.710;2023-06-14T14:34:11;9.55;;;2.75;;
53843;SDS011;39744;53.314;5.710;2023-06-14T14:36:37;9.55;;;2.88;;
53843;SDS011;39744;53.314;5.710;2023-06-14T14:39:07;8.02;;;2.90;;
53843;SDS011;39744;53.314;5.710;2023-06-14T14:41:33;6.70;;;2.83;;
53843;SDS011;39744;53.314;5.710;2023-06-14T14:44:00;7.22;;;2.38;;
53843;SDS011;39744;53.314;5.710;2023-06-14T14:46:27;9.10;;;2.88;;
53843;SDS011;39744;53.314;5.710;2023-06-14T14:48:54;6.13;;;2.22;;
53843;SDS011;39744;53.314;5.710;2023-06-14T14:51:20;6.57;;;2.55;;
53843;SDS011;39744;53.314;5.710;2023-06-14T14:53:46;11.60;;;2.70;;
53843;SDS011;39744;53.314;5.710;2023-06-14T14:56:12;6.25;;;2.30;;
53843;SDS011;39744;53.314;5.710;2023-06-14T14:58:38;8.40;;;2.40;;
53843;SDS011;39744;53.314;5.710;2023-06-14T15:01:04;9.38;;;2.50;;
53843;SDS011;39744;53.314;5.710;2023-06-14T15:03:30;7.25;;;2.22;;
53843;SDS011;39744;53.314;5.710;2023-06-14T15:05:57;8.57;;;2.50;;
53843;SDS011;39744;53.314;5.710;2023-06-14T15:08:23;8.50;;;2.85;;
53843;SDS011;39744;53.314;5.710;2023-06-14T15:10:49;4.47;;;2.40;;
53843;SDS011;39744;53.314;5.710;2023-06-14T15:13:15;8.25;;;2.50;;